Time;durP1;ratioP1;P1;durP2;ratioP2;P2;SDS_P1;SDS_P2;PMS_P1;PMS_P2;Temp;Humidity;BMP_temperature;BMP_pressure;BME280_temperature;BME280_humidity;BME280_pressure;Samples;Min_cycle;Max_cycle;Signal;HPM_P1;HPM_P2
2022/01/23 00:01:13;;;;;;;19.85;15.10;;;;;;;4.23;76.83;100350.81;4156978;28;20277;-54
2022/01/23 00:03:19;;;;;;;16.40;14.75;;;;;;;4.12;76.79;100347.53;4157711;28;20685;-53
2022/01/23 00:05:23;;;;;;;18.15;16.55;;;;;;;4.07;77.08;100333.66;4144225;28;20242;-53
2022/01/23 00:07:26;;;;;;;15.27;13.98;;;;;;;4.11;76.95;100335.88;4157944;28;20241;-54
2022/01/23 00:09:27;;;;;;;16.85;14.35;;;;;;;4.07;77.25;100329.06;4155331;28;20259;-53
2022/01/23 00:11:31;;;;;;;19.92;16.52;;;;;;;4.06;77.30;100335.50;4157984;28;20319;-53
2022/01/23 00:17:17;;;;;;;19.42;17.80;;;;;;;4.07;76.85;100329.06;4162379;28;20250;-53
2022/01/23 00:18:16;;;;;;;18.08;16.48;;;;;;;4.06;77.28;100332.78;4156312;28;20212;-53
2022/01/23 00:20:18;;;;;;;17.83;16.15;;;;;;;4.06;77.05;100335.50;4157558;28;20221;-54
2022/01/23 00:22:22;;;;;;;17.13;15.63;;;;;;;4.14;77.14;100327.38;4161360;28;20279;-53
2022/01/23 00:31:26;;;;;;;17.83;16.10;;;;;;;4.07;77.17;100331.78;4159820;28;20263;-53
2022/01/23 00:33:28;;;;;;;16.73;15.25;;;;;;;4.07;77.07;100331.78;4142925;28;20748;-54
2022/01/23 00:35:31;;;;;;;18.75;16.95;;;;;;;4.14;77.00;100338.22;4157731;28;20410;-53
2022/01/23 00:37:32;;;;;;;18.40;16.55;;;;;;;4.11;76.71;100341.28;4157318;28;20605;-55
2022/01/23 00:39:34;;;;;;;17.00;15.35;;;;;;;4.09;76.68;100332.47;4155834;28;20212;-55
2022/01/23 00:41:36;;;;;;;18.05;16.23;;;;;;;4.14;76.78;100334.69;4158596;28;20260;-55
2022/01/23 00:43:41;;;;;;;18.25;16.42;;;;;;;4.11;76.69;100335.88;4172129;28;20208;-53
2022/01/23 00:45:52;;;;;;;17.60;15.80;;;;;;;4.06;76.91;100326.53;4156375;28;20311;-54
2022/01/23 00:48:00;;;;;;;16.52;15.02;;;;;;;4.07;77.18;100333.66;4142877;28;20518;-54
2022/01/23 00:50:02;;;;;;;15.98;14.40;;;;;;;4.09;77.08;100329.78;4158195;28;20217;-53
2022/01/23 00:52:04;;;;;;;18.05;16.55;;;;;;;4.06;76.79;100324.66;4155169;28;21114;-53
2022/01/23 00:54:10;;;;;;;16.77;15.27;;;;;;;4.14;77.11;100313.03;4140883;28;20264;-53
2022/01/23 00:56:12;;;;;;;16.48;15.07;;;;;;;4.05;77.14;100312.13;4156649;28;20209;-54
2022/01/23 00:58:15;;;;;;;18.60;16.02;;;;;;;4.15;76.92;100310.13;4157228;28;20331;-53
2022/01/23 01:00:17;;;;;;;19.08;17.27;;;;;;;4.08;77.05;100314.50;4158378;28;20213;-54
2022/01/23 01:02:19;;;;;;;18.23;16.80;;;;;;;4.05;77.20;100316.69;4173157;28;20270;-54
2022/01/23 01:04:21;;;;;;;18.75;16.83;;;;;;;4.04;77.11;100320.41;4160405;28;20718;-55
2022/01/23 01:06:23;;;;;;;17.67;16.17;;;;;;;4.08;77.34;100314.50;4168681;28;20212;-54
2022/01/23 01:08:25;;;;;;;18.27;16.60;;;;;;;4.00;77.05;100314.50;4143143;28;20667;-53
2022/01/23 01:10:39;;;;;;;21.35;19.23;;;;;;;4.04;77.41;100313.16;4156913;28;20208;-54
2022/01/23 01:12:44;;;;;;;19.17;17.38;;;;;;;4.00;77.39;100311.78;4166880;28;20223;-54
2022/01/23 01:36:15;;;;;;;18.00;16.27;;;;;;;3.98;77.59;100319.22;4136377;28;20263;-55
2022/01/23 01:38:17;;;;;;;20.17;17.90;;;;;;;4.00;77.43;100317.19;4154813;28;21421;-54
2022/01/23 01:40:20;;;;;;;17.45;15.93;;;;;;;4.01;77.38;100313.47;4156247;28;20235;-55
2022/01/23 01:42:22;;;;;;;18.60;16.88;;;;;;;4.02;77.30;100326.03;4169518;28;20715;-53
2022/01/23 01:44:24;;;;;;;19.63;17.63;;;;;;;4.03;77.11;100329.56;4173567;28;20692;-53
2022/01/23 01:46:25;;;;;;;18.80;16.92;;;;;;;4.02;77.29;100336.84;4144096;28;20205;-53
2022/01/23 01:48:27;;;;;;;19.67;17.77;;;;;;;4.00;77.31;100325.31;4159148;28;20303;-55
2022/01/23 01:50:31;;;;;;;18.88;17.25;;;;;;;4.00;77.04;100316.38;4158183;28;20725;-54
2022/01/23 01:52:34;;;;;;;20.10;18.08;;;;;;;4.00;77.31;100322.59;4156627;28;20224;-54
2022/01/23 01:54:36;;;;;;;16.92;15.43;;;;;;;4.16;77.28;100324.53;4156580;28;20690;-55
2022/01/23 01:56:47;;;;;;;17.23;15.80;;;;;;;4.14;76.98;100321.97;4156651;28;20760;-54
2022/01/23 02:00:57;;;;;;;19.90;16.70;;;;;;;4.02;77.32;100317.91;4154778;28;20213;-54
2022/01/23 02:09:47;;;;;;;19.35;16.23;;;;;;;4.02;77.12;100298.94;4158129;28;20251;-54
2022/01/23 02:14:10;;;;;;;18.85;17.05;;;;;;;3.97;77.13;100298.56;4158253;28;20234;-53
2022/01/23 02:50:52;;;;;;;18.02;16.50;;;;;;;3.99;76.97;100288.41;4159616;28;20933;-53
2022/01/23 02:55:21;;;;;;;17.05;15.43;;;;;;;3.96;77.26;100288.75;4161697;28;20211;-54
2022/01/23 02:57:39;;;;;;;18.20;16.40;;;;;;;3.93;77.52;100297.19;4161042;28;20196;-53
2022/01/23 02:59:41;;;;;;;17.65;15.95;;;;;;;4.05;77.35;100303.16;4163249;28;20322;-53
2022/01/23 03:04:10;;;;;;;17.05;15.60;;;;;;;3.90;77.61;100300.25;4138268;28;20236;-53
2022/01/23 03:06:38;;;;;;;17.15;15.75;;;;;;;3.90;77.44;100294.84;4159222;28;20208;-53
2022/01/23 03:11:05;;;;;;;17.05;15.38;;;;;;;3.82;77.90;100305.66;4161898;28;20208;-53
2022/01/23 03:29:28;;;;;;;22.20;18.10;;;;;;;3.68;78.85;100322.47;4138666;28;20208;-54
2022/01/23 03:31:42;;;;;;;20.48;18.58;;;;;;;3.68;78.63;100325.19;4149716;28;20222;-54
2022/01/23 03:33:44;;;;;;;18.50;17.00;;;;;;;3.70;78.56;100325.88;4163725;28;20205;-53
2022/01/23 03:35:46;;;;;;;20.42;18.73;;;;;;;3.72;79.00;100317.59;4164303;28;20216;-54
2022/01/23 03:37:49;;;;;;;20.95;19.05;;;;;;;3.73;78.78;100313.91;4180149;28;20207;-53
2022/01/23 03:39:50;;;;;;;20.08;18.33;;;;;;;3.76;78.73;100314.41;4166012;28;20323;-55
2022/01/23 03:41:52;;;;;;;20.52;18.73;;;;;;;3.74;78.52;100316.41;4160686;28;20259;-53
2022/01/23 03:43:54;;;;;;;20.70;19.00;;;;;;;3.78;78.39;100316.94;4158186;28;20279;-56
2022/01/23 03:50:28;;;;;;;19.15;17.52;;;;;;;3.82;78.04;100318.31;4159622;28;21126;-55
2022/01/23 03:52:30;;;;;;;19.92;17.70;;;;;;;3.80;78.19;100312.22;4160873;28;20213;-53
2022/01/23 03:54:32;;;;;;;19.05;17.27;;;;;;;3.80;78.42;100315.78;4159242;28;20209;-53
2022/01/23 03:56:34;;;;;;;17.63;16.00;;;;;;;3.84;78.43;100317.16;4156199;28;20327;-54
2022/01/23 03:58:35;;;;;;;19.48;17.77;;;;;;;3.86;78.25;100304.28;4142205;28;20619;-52
2022/01/23 04:00:37;;;;;;;18.63;16.90;;;;;;;3.85;78.10;100297.19;4160234;28;20691;-54
2022/01/23 04:02:40;;;;;;;18.75;17.02;;;;;;;3.85;77.96;100302.59;4158902;28;20264;-53
2022/01/23 04:04:42;;;;;;;18.92;17.23;;;;;;;3.83;77.73;100299.22;4140605;28;21094;-52
2022/01/23 04:06:44;;;;;;;19.02;17.42;;;;;;;3.87;77.75;100297.84;4175565;28;20306;-52
2022/01/23 04:08:46;;;;;;;20.52;18.42;;;;;;;3.83;78.13;100299.22;4191863;28;20805;-54
2022/01/23 04:10:48;;;;;;;20.50;18.33;;;;;;;3.84;77.94;100306.31;4159982;28;20684;-54
2022/01/23 04:15:35;;;;;;;21.02;19.25;;;;;;;3.80;77.86;100304.94;4162444;28;20995;-53
2022/01/23 04:33:30;;;;;;;20.10;17.98;;;;;;;3.71;78.35;100295.09;4156873;28;20592;-53
2022/01/23 05:01:51;;;;;;;18.08;16.30;;;;;;;3.73;78.66;100308.47;4160111;28;20266;-55
2022/01/23 05:06:05;;;;;;;18.13;16.42;;;;;;;3.71;78.58;100315.91;4161671;28;20204;-54
2022/01/23 05:08:08;;;;;;;17.73;16.27;;;;;;;3.75;78.34;100307.28;4167500;28;20213;-54
2022/01/23 05:10:10;;;;;;;17.95;16.00;;;;;;;3.76;78.63;100314.41;4160009;28;20201;-55
2022/01/23 05:12:12;;;;;;;17.30;15.07;;;;;;;3.77;78.34;100321.53;4160476;28;20232;-52
2022/01/23 05:14:17;;;;;;;15.00;13.50;;;;;;;3.78;78.30;100325.06;4167659;28;20211;-53
2022/01/23 05:16:19;;;;;;;15.68;14.48;;;;;;;3.78;78.20;100323.22;4152872;28;20208;-53
2022/01/23 05:18:21;;;;;;;16.52;15.02;;;;;;;3.78;78.27;100328.63;4149827;28;20674;-53
2022/01/23 05:20:27;;;;;;;17.13;15.50;;;;;;;3.80;78.57;100326.59;4157414;28;20204;-54
2022/01/23 05:24:41;;;;;;;15.43;14.02;;;;;;;3.79;78.09;100330.31;4161529;28;20569;-54
2022/01/23 05:26:45;;;;;;;16.58;15.07;;;;;;;3.78;78.47;100323.22;4161323;28;20230;-54
2022/01/23 05:28:47;;;;;;;17.20;15.70;;;;;;;3.78;78.51;100317.81;4160429;28;20563;-53
2022/01/23 05:30:49;;;;;;;17.27;15.57;;;;;;;3.78;78.34;100309.69;4160728;28;20209;-51
2022/01/23 05:32:51;;;;;;;18.00;16.20;;;;;;;3.80;78.13;100315.78;4161540;28;20220;-53
2022/01/23 05:34:55;;;;;;;20.05;18.02;;;;;;;3.77;78.03;100318.81;4159082;28;20326;-53
2022/01/23 05:36:57;;;;;;;20.75;18.25;;;;;;;3.76;78.17;100316.25;4158066;28;20205;-53
2022/01/23 05:38:59;;;;;;;22.98;20.80;;;;;;;3.73;78.69;100320.13;4162585;28;20213;-53
2022/01/23 05:41:01;;;;;;;22.13;18.95;;;;;;;3.75;78.16;100318.09;4156710;28;20209;-53
2022/01/23 05:43:03;;;;;;;18.83;17.10;;;;;;;3.74;78.83;100319.13;4155517;28;20637;-54
2022/01/23 05:45:05;;;;;;;17.70;16.35;;;;;;;3.74;78.13;100318.28;4165708;28;20758;-53
2022/01/23 05:47:09;;;;;;;18.73;17.15;;;;;;;3.75;78.53;100312.69;4159381;28;20245;-53
2022/01/23 05:49:11;;;;;;;18.50;16.65;;;;;;;3.74;78.07;100321.00;4158584;28;20875;-53
2022/01/23 05:51:12;;;;;;;19.27;17.00;;;;;;;3.70;78.48;100328.59;4141049;28;20209;-53
2022/01/23 05:53:14;;;;;;;19.45;17.60;;;;;;;3.72;78.52;100315.75;4164173;28;20205;-53
2022/01/23 05:55:16;;;;;;;19.45;17.90;;;;;;;3.73;78.25;100313.91;4176104;28;20633;-53
2022/01/23 05:57:17;;;;;;;17.92;16.35;;;;;;;3.69;78.26;100324.19;4164104;28;20203;-54
2022/01/23 05:59:21;;;;;;;18.33;16.42;;;;;;;3.69;78.30;100329.63;4153799;28;20217;-55
2022/01/23 06:01:23;;;;;;;18.95;17.25;;;;;;;3.70;78.66;100336.72;4159537;28;20224;-53
2022/01/23 06:03:25;;;;;;;21.10;17.50;;;;;;;3.70;78.30;100346.69;4170588;28;20860;-53
2022/01/23 06:05:26;;;;;;;18.70;17.02;;;;;;;3.73;78.51;100347.22;4156594;28;20201;-54
2022/01/23 06:07:28;;;;;;;19.48;17.80;;;;;;;3.65;78.99;100346.31;4145656;28;20237;-55
2022/01/23 06:09:36;;;;;;;17.17;15.60;;;;;;;3.63;79.12;100351.91;4161614;28;20196;-54
2022/01/23 06:11:38;;;;;;;18.50;15.88;;;;;;;3.60;78.88;100349.50;4161429;28;20266;-55
2022/01/23 06:13:40;;;;;;;17.40;15.85;;;;;;;3.64;79.10;100353.59;4162259;28;20279;-54
2022/01/23 06:15:41;;;;;;;17.73;14.73;;;;;;;3.66;78.56;100348.88;4161475;28;20239;-53
2022/01/23 06:17:43;;;;;;;18.92;16.17;;;;;;;3.65;78.56;100354.44;4159612;28;20251;-54
2022/01/23 06:19:45;;;;;;;17.55;15.80;;;;;;;3.68;78.48;100354.97;4175585;28;20686;-53
2022/01/23 06:21:47;;;;;;;20.00;18.17;;;;;;;3.65;78.79;100355.28;4159272;28;20233;-53
2022/01/23 06:23:54;;;;;;;20.25;18.25;;;;;;;3.62;79.09;100355.63;4159662;28;20278;-54
2022/01/23 06:25:56;;;;;;;19.30;17.67;;;;;;;3.64;79.12;100364.44;4141186;28;20650;-55
2022/01/23 06:27:59;;;;;;;18.77;17.15;;;;;;;3.62;78.75;100358.34;4162984;28;20234;-54
2022/01/23 06:30:01;;;;;;;18.63;16.73;;;;;;;3.60;79.37;100360.34;4180538;28;20351;-55
2022/01/23 06:32:03;;;;;;;21.65;19.58;;;;;;;3.61;78.65;100359.31;4176674;28;20261;-55
2022/01/23 06:34:09;;;;;;;21.42;18.95;;;;;;;3.62;79.08;100374.56;4161415;28;20259;-52
2022/01/23 06:36:11;;;;;;;19.70;17.98;;;;;;;3.61;79.21;100363.91;4162101;28;20264;-54
2022/01/23 06:38:12;;;;;;;18.52;16.73;;;;;;;3.62;78.75;100366.47;4161632;28;20674;-54
2022/01/23 06:40:14;;;;;;;17.38;15.93;;;;;;;3.63;78.61;100368.16;4142626;28;20312;-54
2022/01/23 06:42:16;;;;;;;17.05;15.48;;;;;;;3.63;79.32;100362.75;4159926;28;20221;-53
2022/01/23 06:44:18;;;;;;;17.25;15.75;;;;;;;3.67;78.59;100374.91;4176753;28;20258;-55
2022/01/23 06:46:19;;;;;;;17.25;15.75;;;;;;;3.69;79.06;100372.94;4160770;28;20220;-52
2022/01/23 06:48:21;;;;;;;17.75;16.05;;;;;;;3.68;78.81;100375.78;4163564;28;20213;-55
2022/01/23 06:50:24;;;;;;;18.25;16.33;;;;;;;3.70;78.55;100380.03;4157952;28;20217;-53
2022/01/23 06:52:26;;;;;;;18.98;17.13;;;;;;;3.72;78.44;100372.59;4158564;28;20252;-54
2022/01/23 06:54:28;;;;;;;17.02;15.00;;;;;;;3.75;78.85;100377.66;4160523;28;20232;-53
2022/01/23 06:56:33;;;;;;;18.10;16.50;;;;;;;3.76;78.82;100379.38;4175032;28;20303;-54
2022/01/23 06:58:40;;;;;;;20.25;18.30;;;;;;;3.85;78.98;100378.41;4159491;28;20208;-57
2022/01/23 07:00:43;;;;;;;21.25;18.42;;;;;;;3.87;78.79;100383.66;4163516;28;20207;-53
2022/01/23 07:02:45;;;;;;;22.70;17.27;;;;;;;3.88;78.56;100380.78;4160234;28;20228;-55
2022/01/23 07:04:47;;;;;;;19.90;17.60;;;;;;;3.92;78.18;100376.75;4172598;28;20675;-54
2022/01/23 07:06:49;;;;;;;19.10;16.98;;;;;;;3.88;78.15;100383.47;4162818;28;20243;-54
2022/01/23 07:08:50;;;;;;;19.40;17.65;;;;;;;3.86;78.40;100388.22;4144779;28;20255;-53
2022/01/23 07:10:52;;;;;;;19.60;17.98;;;;;;;3.89;78.06;100390.63;4159987;28;20582;-53
2022/01/23 07:12:54;;;;;;;18.30;16.70;;;;;;;3.89;78.06;100389.75;4159326;28;20303;-53
2022/01/23 07:14:56;;;;;;;21.08;18.98;;;;;;;3.88;77.85;100394.31;4159940;28;20217;-55
2022/01/23 07:16:57;;;;;;;18.08;16.08;;;;;;;3.86;77.86;100401.75;4160347;28;20224;-53
2022/01/23 07:18:59;;;;;;;19.27;17.25;;;;;;;3.84;77.84;100402.94;4161863;28;20230;-54
2022/01/23 07:21:01;;;;;;;17.48;15.98;;;;;;;3.84;78.20;100403.78;4162396;28;20207;-54
2022/01/23 07:23:02;;;;;;;17.23;15.52;;;;;;;3.85;78.11;100405.47;4160741;28;20220;-53
2022/01/23 07:25:05;;;;;;;19.73;18.05;;;;;;;3.87;78.11;100408.88;4165043;28;20209;-54
2022/01/23 07:27:15;;;;;;;19.60;17.75;;;;;;;3.81;78.31;100404.09;4160344;28;20302;-53
2022/01/23 07:29:18;;;;;;;18.88;17.10;;;;;;;3.81;78.01;100411.38;4159920;28;20215;-53
2022/01/23 07:31:42;;;;;;;22.38;20.13;;;;;;;3.82;77.98;100405.81;4161251;28;20212;-53
2022/01/23 07:33:41;;;;;;;19.23;17.67;;;;;;;3.83;78.17;100412.94;4162377;28;20299;-53
2022/01/23 07:35:43;;;;;;;20.05;18.27;;;;;;;3.81;78.32;100409.50;4161750;28;20208;-53
2022/01/23 07:37:45;;;;;;;19.95;18.05;;;;;;;3.79;78.03;100405.25;4161945;28;20664;-52
2022/01/23 07:39:47;;;;;;;23.55;21.38;;;;;;;3.79;78.42;100405.25;4158324;28;20279;-53
2022/01/23 07:41:48;;;;;;;20.30;18.48;;;;;;;3.79;78.14;100408.84;4146998;28;20232;-53
2022/01/23 07:43:50;;;;;;;23.17;21.08;;;;;;;3.80;78.00;100407.81;4159208;28;20254;-52
2022/01/23 07:45:53;;;;;;;22.77;20.88;;;;;;;3.82;78.37;100399.53;4146033;28;20214;-53
2022/01/23 07:47:54;;;;;;;22.50;20.38;;;;;;;3.82;78.38;100405.81;4160632;28;20682;-53
2022/01/23 07:49:56;;;;;;;21.38;19.67;;;;;;;3.81;78.46;100401.38;4159164;28;20205;-53
2022/01/23 07:51:59;;;;;;;21.38;19.08;;;;;;;3.80;78.10;100409.69;4145170;28;20221;-53
2022/01/23 07:54:01;;;;;;;24.13;19.20;;;;;;;3.84;78.32;100402.94;4160588;28;20200;-54
2022/01/23 07:56:03;;;;;;;21.88;19.80;;;;;;;3.84;77.74;100416.47;4143516;28;20209;-53
2022/01/23 07:58:12;;;;;;;24.30;22.05;;;;;;;3.82;78.20;100404.97;4157499;28;20941;-53
2022/01/23 08:00:15;;;;;;;24.23;21.20;;;;;;;3.80;78.19;100407.81;4162863;28;20291;-55
2022/01/23 08:02:16;;;;;;;20.20;18.13;;;;;;;3.80;78.33;100407.00;4169004;28;20223;-53
2022/01/23 08:04:18;;;;;;;19.58;17.83;;;;;;;3.80;78.68;100407.81;4161019;28;20236;-53
2022/01/23 08:06:21;;;;;;;20.85;19.15;;;;;;;3.80;78.18;100410.53;4161989;28;20213;-53
2022/01/23 08:08:23;;;;;;;18.60;17.10;;;;;;;3.82;78.52;100413.94;4169132;28;20265;-53
2022/01/23 08:10:24;;;;;;;21.58;19.17;;;;;;;3.81;78.05;100420.34;4157413;28;20291;-53
2022/01/23 08:12:27;;;;;;;20.08;18.40;;;;;;;3.81;78.15;100414.94;4161983;28;20294;-53
2022/01/23 08:14:29;;;;;;;20.20;18.52;;;;;;;3.84;78.08;100421.88;4140251;28;20271;-53
2022/01/23 08:16:31;;;;;;;21.15;18.40;;;;;;;3.82;78.53;100430.19;4161226;28;20578;-53
2022/01/23 08:18:32;;;;;;;19.77;18.20;;;;;;;3.83;78.32;100426.47;4159051;28;20263;-53
2022/01/23 08:20:35;;;;;;;20.45;18.73;;;;;;;3.86;78.33;100436.97;4158724;28;20259;-53
2022/01/23 08:22:37;;;;;;;21.65;19.70;;;;;;;3.87;78.28;100427.00;4162041;28;20221;-53
2022/01/23 08:24:38;;;;;;;22.70;20.50;;;;;;;3.88;78.50;100432.22;4162867;28;20590;-53
2022/01/23 08:26:40;;;;;;;22.15;19.60;;;;;;;3.91;78.16;100434.63;4165338;28;20258;-53
2022/01/23 08:28:42;;;;;;;22.27;19.60;;;;;;;3.93;78.44;100435.31;4159955;28;20582;-54
2022/01/23 08:30:44;;;;;;;23.35;20.90;;;;;;;3.95;78.43;100432.44;4161295;28;20200;-55
2022/01/23 08:32:46;;;;;;;27.30;20.85;;;;;;;3.96;78.08;100429.59;4144751;28;20288;-54
2022/01/23 08:34:48;;;;;;;23.50;20.75;;;;;;;3.99;77.90;100440.09;4174369;28;20216;-54
2022/01/23 08:36:50;;;;;;;21.30;19.00;;;;;;;4.00;78.05;100435.53;4155939;28;20286;-52
2022/01/23 08:38:52;;;;;;;22.10;20.05;;;;;;;4.00;78.20;100430.94;4157457;28;20278;-55
2022/01/23 08:43:16;;;;;;;22.98;20.77;;;;;;;4.04;77.89;100436.88;4160502;28;20215;-54
2022/01/23 08:45:21;;;;;;;21.67;19.50;;;;;;;4.08;77.88;100439.09;4156979;28;20287;-56
2022/01/23 08:47:23;;;;;;;21.33;19.08;;;;;;;4.12;77.79;100435.06;4158715;28;20201;-55
2022/01/23 08:49:28;;;;;;;19.65;17.77;;;;;;;4.09;76.86;100438.13;4161411;28;20213;-54
2022/01/23 08:51:30;;;;;;;121.50;45.92;;;;;;;4.07;76.87;100442.81;4159807;28;20309;-54
2022/01/23 08:53:32;;;;;;;145.77;52.58;;;;;;;4.10;76.48;100437.09;4144622;28;20206;-54
2022/01/23 08:55:33;;;;;;;135.15;53.35;;;;;;;4.14;76.43;100441.16;4162423;28;20666;-53
2022/01/23 08:57:35;;;;;;;156.13;58.60;;;;;;;4.19;76.56;100444.25;4160582;28;20593;-54
2022/01/23 08:59:57;;;;;;;120.35;43.72;;;;;;;4.21;76.26;100439.50;4159125;28;20856;-54
2022/01/23 09:01:59;;;;;;;99.53;41.22;;;;;;;4.23;76.36;100442.94;4158813;28;20777;-54
2022/01/23 09:04:02;;;;;;;59.45;30.83;;;;;;;4.22;75.87;100449.34;4161142;28;20279;-52
2022/01/23 09:06:05;;;;;;;26.77;21.55;;;;;;;4.24;75.57;100438.34;4150379;28;20255;-54
2022/01/23 09:08:07;;;;;;;32.50;23.92;;;;;;;4.30;75.25;100441.25;4160671;28;20259;-53
2022/01/23 09:10:09;;;;;;;22.35;20.05;;;;;;;4.30;75.59;100438.56;4158643;28;20251;-56
2022/01/23 09:14:23;;;;;;;26.00;19.55;;;;;;;4.45;74.13;100436.03;4148335;28;20209;-55
2022/01/23 09:16:25;;;;;;;17.58;15.43;;;;;;;4.38;73.39;100435.00;4161956;28;20216;-53
2022/01/23 09:18:27;;;;;;;19.13;17.15;;;;;;;4.42;73.74;100431.81;4160709;28;20753;-55
2022/01/23 09:20:28;;;;;;;19.00;17.23;;;;;;;4.41;73.51;100430.09;4176329;28;20301;-54
2022/01/23 09:22:31;;;;;;;22.98;17.45;;;;;;;4.41;73.57;100440.09;4173971;28;20220;-53
2022/01/23 09:24:33;;;;;;;20.00;18.08;;;;;;;4.42;73.43;100437.25;4158955;28;20232;-55
2022/01/23 09:26:36;;;;;;;19.13;17.42;;;;;;;4.49;73.25;100435.56;4157782;28;20219;-53
2022/01/23 09:28:40;;;;;;;18.85;17.25;;;;;;;4.48;73.58;100435.72;4159428;28;20634;-52
2022/01/23 09:30:44;;;;;;;19.25;17.50;;;;;;;4.42;73.60;100450.78;4159330;28;20208;-53
2022/01/23 09:32:47;;;;;;;18.33;16.80;;;;;;;4.43;73.75;100444.34;4142879;28;20259;-53
2022/01/23 09:34:51;;;;;;;17.42;15.73;;;;;;;4.47;73.81;100440.28;4167873;28;20634;-55
2022/01/23 09:36:55;;;;;;;18.80;17.20;;;;;;;4.49;73.45;100449.13;4162868;28;20720;-54
2022/01/23 09:38:57;;;;;;;18.95;17.30;;;;;;;4.50;73.65;100448.09;4158241;28;20259;-53
2022/01/23 09:40:59;;;;;;;20.40;18.65;;;;;;;4.55;74.33;100448.47;4157967;28;20234;-53
2022/01/23 09:43:11;;;;;;;17.73;16.00;;;;;;;4.61;73.89;100447.78;4160971;28;20228;-53
2022/01/23 09:45:13;;;;;;;15.02;13.75;;;;;;;4.58;73.76;100436.41;4150781;28;20275;-53
2022/01/23 09:47:16;;;;;;;17.77;16.15;;;;;;;4.70;72.59;100446.81;4160060;28;20641;-53
2022/01/23 09:49:18;;;;;;;17.88;16.38;;;;;;;4.65;72.80;100437.47;4152138;28;20209;-54
2022/01/23 09:51:23;;;;;;;16.95;15.30;;;;;;;4.70;73.25;100435.97;4156248;28;20299;-54
2022/01/23 09:53:32;;;;;;;17.08;15.50;;;;;;;4.72;73.15;100433.94;4160637;28;20291;-53
2022/01/23 09:55:35;;;;;;;16.20;14.80;;;;;;;4.78;73.32;100438.69;4139242;28;20251;-55
2022/01/23 09:57:41;;;;;;;16.20;14.75;;;;;;;4.78;73.67;100441.41;4161554;28;20197;-54
2022/01/23 09:59:43;;;;;;;19.00;17.30;;;;;;;4.83;73.30;100441.75;4159737;28;20307;-54
2022/01/23 10:01:48;;;;;;;16.00;14.32;;;;;;;4.85;73.62;100439.72;4158426;28;20627;-53
2022/01/23 10:03:51;;;;;;;15.25;13.95;;;;;;;4.88;72.40;100443.97;4159685;28;20209;-54
2022/01/23 10:05:54;;;;;;;16.88;15.25;;;;;;;4.85;71.82;100456.00;4160643;28;20845;-53
2022/01/23 10:07:57;;;;;;;15.90;14.40;;;;;;;4.88;71.92;100449.38;4143867;28;20236;-51
2022/01/23 10:10:10;;;;;;;15.98;14.57;;;;;;;4.85;72.05;100447.84;4156695;28;20312;-53
2022/01/23 10:12:12;;;;;;;14.65;13.35;;;;;;;4.91;71.21;100444.47;4158760;28;20232;-52
2022/01/23 10:14:17;;;;;;;16.15;13.48;;;;;;;4.89;71.50;100440.22;4139384;28;20259;-56
2022/01/23 10:16:19;;;;;;;15.63;14.30;;;;;;;4.97;71.46;100445.66;4157351;28;20201;-54
2022/01/23 10:18:24;;;;;;;16.25;14.75;;;;;;;4.97;71.68;100442.94;4158077;28;20211;-54
2022/01/23 10:20:27;;;;;;;14.20;12.90;;;;;;;4.90;70.71;100437.38;4160621;28;20219;-53
2022/01/23 10:22:29;;;;;;;14.73;13.45;;;;;;;4.95;70.67;100440.44;4160677;28;20228;-55
2022/01/23 10:24:31;;;;;;;14.25;12.95;;;;;;;5.02;70.93;100438.75;4164162;28;20217;-52
2022/01/23 10:26:42;;;;;;;13.95;12.75;;;;;;;5.04;71.49;100434.00;4159537;28;20200;-52
2022/01/23 10:28:44;;;;;;;13.10;12.07;;;;;;;5.10;70.83;100431.44;4162028;28;20200;-55
2022/01/23 10:30:58;;;;;;;14.02;12.88;;;;;;;5.10;70.15;100433.31;4156684;28;20255;-54
2022/01/23 10:33:03;;;;;;;12.65;11.55;;;;;;;5.10;69.70;100438.75;4154255;28;20788;-53
2022/01/23 10:35:05;;;;;;;15.90;14.38;;;;;;;5.16;70.35;100427.22;4151556;28;20200;-54
2022/01/23 10:37:08;;;;;;;15.77;14.48;;;;;;;5.16;70.87;100438.06;4157747;28;20258;-54
2022/01/23 10:39:18;;;;;;;14.02;12.82;;;;;;;5.16;71.10;100429.94;4156039;28;20209;-54
2022/01/23 10:48:35;;;;;;;15.52;14.15;;;;;;;5.34;71.61;100415.16;4161606;28;20216;-54
2022/01/23 10:50:33;;;;;;;16.67;15.07;;;;;;;5.43;71.01;100416.84;4160239;28;20198;-54
2022/01/23 10:52:38;;;;;;;16.33;14.82;;;;;;;5.37;71.00;100408.56;4164544;28;20243;-54
2022/01/23 10:54:40;;;;;;;16.17;14.77;;;;;;;5.36;70.90;100413.13;4164761;28;20208;-54
2022/01/23 10:57:06;;;;;;;14.63;13.32;;;;;;;5.45;71.17;100416.69;4162596;28;20213;-53
2022/01/23 10:59:10;;;;;;;18.55;15.02;;;;;;;5.50;71.33;100420.56;4160257;28;20258;-53
2022/01/23 11:01:12;;;;;;;14.38;12.48;;;;;;;5.50;70.88;100419.75;4163402;28;20924;-52
2022/01/23 11:03:22;;;;;;;14.40;13.20;;;;;;;5.52;70.72;100417.69;4162064;28;20217;-53
2022/01/23 11:05:38;;;;;;;14.40;13.05;;;;;;;5.57;70.33;100407.16;4161046;28;20220;-54
2022/01/23 11:07:43;;;;;;;13.98;12.70;;;;;;;5.55;70.74;100420.09;4161541;28;20682;-54
2022/01/23 11:09:45;;;;;;;16.02;14.60;;;;;;;5.55;71.02;100422.81;4162331;28;20254;-53
2022/01/23 11:11:49;;;;;;;13.85;12.55;;;;;;;5.59;71.26;100414.13;4142606;28;20769;-53
2022/01/23 11:18:57;;;;;;;14.55;13.05;;;;;;;5.71;70.53;100420.91;4163147;28;20209;-54
2022/01/23 11:21:13;;;;;;;16.38;14.05;;;;;;;5.75;70.64;100413.25;4151826;28;20201;-53
2022/01/23 11:23:22;;;;;;;15.85;14.40;;;;;;;5.83;71.00;100421.41;4146778;28;20213;-53
2022/01/23 11:25:24;;;;;;;14.10;12.70;;;;;;;5.82;70.41;100419.72;4161573;28;20216;-53
2022/01/23 11:27:32;;;;;;;16.63;15.10;;;;;;;5.81;70.42;100418.00;4160974;28;20702;-53
2022/01/23 11:29:34;;;;;;;15.32;13.93;;;;;;;5.89;70.08;100409.88;4166337;28;20211;-53
2022/01/23 11:31:37;;;;;;;15.65;14.13;;;;;;;5.88;70.49;100410.88;4161099;28;20285;-53
2022/01/23 11:33:40;;;;;;;17.73;15.82;;;;;;;5.89;70.36;100409.88;4162833;28;20596;-53
2022/01/23 11:35:42;;;;;;;17.05;15.48;;;;;;;5.89;70.00;100405.25;4158246;28;20209;-53
2022/01/23 11:37:51;;;;;;;17.27;15.35;;;;;;;5.93;70.58;100412.06;4155941;28;20221;-54
2022/01/23 11:39:58;;;;;;;16.33;14.85;;;;;;;5.98;70.20;100408.81;4143965;28;20248;-53
2022/01/23 11:55:46;;;;;;;10.90;9.73;;;;;;;5.87;68.41;100401.00;4153606;28;20264;-54
2022/01/23 11:57:48;;;;;;;12.55;11.55;;;;;;;5.76;68.34;100395.94;4157928;28;20209;-53
2022/01/23 11:59:50;;;;;;;11.23;9.13;;;;;;;5.84;68.44;100395.94;4159893;28;20208;-52
2022/01/23 12:02:11;;;;;;;15.02;13.73;;;;;;;5.88;69.01;100397.31;4157368;28;20225;-53
2022/01/23 12:04:21;;;;;;;15.88;12.32;;;;;;;5.91;68.85;100386.06;4157830;28;20807;-53
2022/01/23 12:06:23;;;;;;;14.13;12.80;;;;;;;5.97;68.64;100382.66;4159442;28;20208;-55
2022/01/23 12:08:30;;;;;;;13.60;12.60;;;;;;;6.02;68.58;100380.28;4169419;28;20205;-53
2022/01/23 12:10:48;;;;;;;13.68;12.57;;;;;;;6.04;68.36;100375.50;4156623;28;20232;-54
2022/01/23 12:12:53;;;;;;;14.02;12.90;;;;;;;5.99;67.71;100378.75;4158606;28;20770;-54
2022/01/23 12:17:45;;;;;;;20.77;18.98;;;;;;;5.97;67.58;100371.78;4162820;28;20209;-53
2022/01/23 12:20:01;;;;;;;44.30;29.23;;;;;;;5.89;67.57;100374.53;4164304;28;20204;-53
2022/01/23 12:22:23;;;;;;;32.35;24.77;;;;;;;5.78;67.40;100377.59;4156682;28;20236;-53
2022/01/23 12:24:26;;;;;;;43.50;31.05;;;;;;;5.73;67.93;100377.25;4153515;28;20643;-53
2022/01/23 12:26:27;;;;;;;20.75;18.77;;;;;;;5.86;67.97;100366.72;4160269;28;20324;-53
2022/01/23 12:28:32;;;;;;;25.15;21.45;;;;;;;5.90;68.87;100366.19;4161209;28;20267;-53
2022/01/23 12:30:35;;;;;;;17.02;15.50;;;;;;;5.90;68.87;100359.94;4177747;28;20207;-53
2022/01/23 12:32:37;;;;;;;15.57;14.23;;;;;;;6.00;68.31;100360.56;4159881;28;20706;-54
2022/01/23 12:34:59;;;;;;;16.38;15.02;;;;;;;6.00;68.39;100360.56;4162452;28;20200;-54
2022/01/23 12:37:01;;;;;;;15.15;13.95;;;;;;;5.87;67.43;100352.13;4158838;28;20569;-53